• Join FlightAware (Why Join?)
  • Login
  • US Flag 
11:17AM EDT


 

Airport Tracker/Info


-or-


 

Live Flight TrackerFlight Track Log ✈ EGF3382 ✈ 30-Nov-2013 ✈ KRDU - KDCA

Flight Track Log - Related Links

Times and Time Zones

All times are in EST time to prevent confusion due to time zone crossing. See the EGF3382 flight status page for this flight to view local times or setup timezone preferences in your user account.

Time Position Orientation Groundspeed Altitude Reporting Facility
EST Latitude Longitude Course Direction KTS MPH feet Rate Location/Type
02:44PM 35.9008 -78.7742 35° Northeast 193 222 1,200  Level Washington Center
02:45PM 35.9264 -78.7597 25° Northeast 200 230 2,300 2,220 Climbing Washington Center
02:46PM 36.0025 -78.7192 23° Northeast 274 315 5,100 2,400 Climbing Washington Center
02:47PM 36.1292 -78.6452 35° Northeast  Level Estimated
02:47PM 36.0753 -78.6475 39° Northeast 286 329 8,200  Level Washington Center
02:48PM 36.2131 -78.5976 39° Northeast  Level Estimated
02:48PM 36.1439 -78.5756 40° Northeast 286 329 11,000  Level Washington Center
02:49PM 36.2969 -78.5499 39° Northeast  Level Estimated
02:49PM 36.2061 -78.5111 40° Northeast 307 353 12,400  Level Washington Center
02:50PM 36.3807 -78.5021 35° Northeast  Level Estimated
02:50PM 36.2894 -78.4239 40° Northeast 342 394 14,200  Level Washington Center
02:51PM 36.3622 -78.3519 39° Northeast 360 414 15,600 1,380 Climbing Washington Center
02:52PM 36.4433 -78.2644 41° Northeast 370 426 17,000 1,140 Climbing Washington Center
02:53PM 36.5267 -78.1792 39° Northeast 382 440 18,000 1,260 Climbing Washington Center
02:54PM 36.6225 -78.0867 38° Northeast 387 445 19,600 1,560 Climbing Washington Center
02:55PM 36.7119 -78.0042 36° Northeast 392 451 21,100 1,140 Climbing Washington Center
02:56PM 36.8133 -77.9319 30° Northeast 397 457 22,000 420 Climbing Washington Center
02:57PM 36.9228 -77.8781 21° North 403 464 22,000  Level Washington Center
02:58PM 37.0261 -77.8239 23° Northeast 431 496 22,000  Level Washington Center
02:59PM 37.1397 -77.7675 22° Northeast 439 505 22,000  Level Washington Center
03:00PM 37.2536 -77.7081 23° Northeast 439 505 22,000  Level Washington Center
03:01PM 37.3800 -77.6408 23° Northeast 444 511 22,000  Level Washington Center
03:02PM 37.4936 -77.5811 23° Northeast 438 504 22,000  Level Washington Center
03:03PM 37.6092 -77.5186 23° Northeast 438 504 22,000 -1,140 Level Washington Center
03:04PM 37.7228 -77.4586 23° Northeast 438 504 19,700 -2,160 Descending Washington Center
03:05PM 37.8322 -77.4006 23° Northeast 438 504 17,800 -2,280 Descending Washington Center
03:06PM 37.9353 -77.3478 22° Northeast 426 490 15,300 -2,520 Descending Washington Center
03:07PM 38.0339 -77.2947 23° Northeast 398 458 12,800 -2,520 Descending Washington Center
03:08PM 38.1328 -77.2442 22° Northeast 385 443 10,300 -1,440 Descending Washington Center
03:09PM 38.2189 -77.1986 23° Northeast 359 413 10,000 -180 Descending Washington Center
03:10PM 38.3069 -77.1528 22° Northeast 347 399 10,000  Level Washington Center
03:11PM 38.4031 -77.1336 North 341 392 10,000  Level Washington Center
03:12PM 38.4992 -77.1144 North 342 394 10,000  Level Washington Center
03:13PM 38.5914 -77.0950 North 337 388 10,000 -240 Level Washington Center
03:14PM 38.6667 -77.0833 North 290 334 9,600 -1,080 Descending Potomac TRACON
03:15PM 38.7500 -77.0667 North 267 307 8,000 -1,500 Descending Potomac TRACON
03:16PM 38.8000 -77.0833 345° North 248 285 6,700 -1,380 Descending Potomac TRACON
03:17PM 38.8500 -77.1333 322° Northwest 225 259 5,400 -900 Descending Potomac TRACON
03:18PM 38.9000 -77.2000 314° West 220 253 5,000 -240 Descending Potomac TRACON
03:19PM 38.9333 -77.2500 311° West 194 223 5,000 -420 Level Potomac TRACON
03:20PM 38.9833 -77.2167 27° Northeast 200 230 4,200 -900 Descending Potomac TRACON
03:21PM 38.9667 -77.1667 113° Southeast 155 178 3,300 -1,080 Descending Potomac TRACON
03:22PM 38.9500 -77.1333 123° Southeast 150 173 2,200 -1,020 Descending Potomac TRACON
03:23PM 38.9167 -77.1000 142° Southeast 137 158 1,300 -660 Descending Potomac TRACON
03:24PM 38.9000 -77.0667 123° Southeast 135 155 900 -420 Descending Potomac TRACON